createdAt,value
2023-05-11T00:00:24.071Z,12.13
2023-05-11T00:01:24.165Z,12.12
2023-05-11T00:02:24.302Z,12.12
2023-05-11T00:03:24.436Z,12.13
2023-05-11T00:04:24.425Z,12.13
2023-05-11T00:05:24.471Z,12.13
2023-05-11T00:06:24.564Z,12.13
2023-05-11T00:07:24.653Z,12.13
2023-05-11T00:08:24.764Z,12.13
2023-05-11T00:09:24.823Z,12.13
2023-05-11T00:10:24.914Z,12.13
2023-05-11T00:11:25.009Z,12.13
2023-05-11T00:12:25.100Z,12.13
2023-05-11T00:13:25.194Z,12.12
2023-05-11T00:14:25.288Z,12.12
2023-05-11T00:15:25.339Z,12.12
2023-05-11T00:16:25.545Z,12.13
2023-05-11T00:17:25.528Z,12.13
2023-05-11T00:18:25.588Z,12.13
2023-05-11T00:19:25.670Z,12.13
2023-05-11T00:20:25.770Z,12.13
2023-05-11T00:21:25.910Z,12.13
2023-05-11T00:22:25.950Z,12.13
2023-05-11T00:23:26.003Z,12.13
2023-05-11T00:24:26.103Z,12.12
2023-05-11T00:25:26.192Z,12.12
2023-05-11T00:26:27.279Z,12.11
2023-05-11T00:27:26.369Z,12.11
2023-05-11T00:28:26.435Z,12.10
2023-05-11T00:29:26.550Z,12.09
2023-05-11T00:30:26.607Z,12.09
2023-05-11T00:31:29.507Z,12.08
2023-05-11T00:32:26.752Z,12.08
2023-05-11T00:33:26.817Z,12.08
2023-05-11T00:34:26.899Z,12.08
2023-05-11T00:35:26.988Z,12.08
2023-05-11T00:36:27.039Z,12.08
2023-05-11T00:37:27.132Z,12.08
2023-05-11T00:38:27.233Z,12.08
2023-05-11T00:39:27.329Z,12.07
2023-05-11T00:40:27.395Z,12.07
2023-05-11T00:41:27.487Z,12.06
2023-05-11T00:42:27.577Z,12.06
2023-05-11T00:43:27.633Z,12.05
2023-05-11T00:44:27.723Z,12.04
2023-05-11T00:45:27.814Z,12.03
2023-05-11T00:46:27.970Z,12.02
2023-05-11T00:47:28.002Z,12.01
2023-05-11T00:48:28.052Z,12.00
2023-05-11T00:49:28.149Z,12.00
2023-05-11T00:50:28.234Z,12.00
2023-05-11T00:51:28.330Z,11.99
2023-05-11T00:52:28.399Z,11.99
2023-05-11T00:53:28.494Z,11.98
2023-05-11T00:54:28.595Z,11.98
2023-05-11T00:55:28.647Z,11.98
2023-05-11T00:56:28.748Z,11.97
2023-05-11T00:57:28.838Z,11.97
2023-05-11T00:58:28.949Z,11.97
2023-05-11T00:59:29.018Z,11.98
2023-05-11T01:00:29.238Z,11.98
2023-05-11T01:01:29.189Z,11.99
2023-05-11T01:02:29.331Z,11.99
2023-05-11T01:03:29.587Z,11.99
2023-05-11T01:04:29.428Z,11.99
2023-05-11T01:05:29.550Z,11.99
2023-05-11T01:06:29.614Z,11.98
2023-05-11T01:07:29.730Z,11.98
2023-05-11T01:08:29.781Z,11.96
2023-05-11T01:09:29.876Z,11.95
2023-05-11T01:10:29.989Z,11.94
2023-05-11T01:11:30.102Z,11.93
2023-05-11T01:12:30.143Z,11.93
2023-05-11T01:13:30.207Z,11.92
2023-05-11T01:14:30.294Z,11.91
2023-05-11T01:15:30.376Z,11.91
2023-05-11T01:16:30.496Z,11.91
2023-05-11T01:17:30.580Z,11.91
2023-05-11T01:18:30.680Z,11.91
2023-05-11T01:19:30.679Z,11.91
2023-05-11T01:20:30.772Z,11.90
2023-05-11T01:21:30.865Z,11.89
2023-05-11T01:22:30.961Z,11.88
2023-05-11T01:23:31.056Z,11.86
2023-05-11T01:24:31.145Z,11.85
2023-05-11T01:25:31.241Z,11.84
2023-05-11T01:26:31.334Z,11.83
2023-05-11T01:27:31.413Z,11.82
2023-05-11T01:28:31.532Z,11.81
2023-05-11T01:29:31.604Z,11.80
2023-05-11T01:30:31.659Z,11.80
2023-05-11T01:31:31.754Z,11.80
2023-05-11T01:32:32.478Z,11.80
2023-05-11T01:33:31.844Z,11.80
2023-05-11T01:34:31.958Z,11.81
2023-05-11T01:35:32.069Z,11.81
2023-05-11T01:36:32.121Z,11.81
2023-05-11T01:37:32.191Z,11.81
2023-05-11T01:38:32.292Z,11.81
2023-05-11T01:39:32.343Z,11.81
2023-05-11T01:40:32.422Z,11.80
2023-05-11T01:41:32.532Z,11.80
2023-05-11T01:42:32.598Z,11.79
2023-05-11T01:43:32.690Z,11.77
2023-05-11T01:44:32.781Z,11.76
2023-05-11T01:45:32.804Z,11.75
2023-05-11T01:46:32.948Z,11.75
2023-05-11T01:47:33.061Z,11.75
2023-05-11T01:48:33.056Z,11.75
2023-05-11T01:49:33.166Z,11.76
2023-05-11T01:50:33.233Z,11.77
2023-05-11T01:51:33.285Z,11.77
2023-05-11T01:52:33.378Z,11.77
2023-05-11T01:53:33.493Z,11.77
2023-05-11T01:54:33.547Z,11.77
2023-05-11T01:55:33.642Z,11.78
2023-05-11T01:56:33.757Z,11.78
2023-05-11T01:57:33.818Z,11.79
2023-05-11T01:58:33.888Z,11.80
2023-05-11T01:59:34.000Z,11.80
2023-05-11T02:00:34.053Z,11.80
2023-05-11T02:01:34.251Z,11.79
2023-05-11T02:02:34.305Z,11.78
2023-05-11T02:03:34.520Z,11.78
2023-05-11T02:04:34.355Z,11.77
2023-05-11T02:05:34.464Z,11.77
2023-05-11T02:06:35.081Z,11.77
2023-05-11T02:07:34.605Z,11.77
2023-05-11T02:08:34.724Z,11.77
2023-05-11T02:09:34.777Z,11.76
2023-05-11T02:10:34.861Z,11.75
2023-05-11T02:11:34.963Z,11.74
2023-05-11T02:12:35.015Z,11.73
2023-05-11T02:13:35.114Z,11.73
2023-05-11T02:14:35.208Z,11.74
2023-05-11T02:15:35.348Z,11.75
2023-05-11T02:16:35.359Z,11.75
2023-05-11T02:17:35.480Z,11.74
2023-05-11T02:18:35.551Z,11.74
2023-05-11T02:19:35.588Z,11.75
2023-05-11T02:20:35.675Z,11.75
2023-05-11T02:21:35.729Z,11.75
2023-05-11T02:22:35.824Z,11.75
2023-05-11T02:23:35.912Z,11.75
2023-05-11T02:24:35.996Z,11.75
2023-05-11T02:25:36.092Z,11.75
2023-05-11T02:26:36.184Z,11.76
2023-05-11T02:27:36.271Z,11.76
2023-05-11T02:28:36.358Z,11.76
2023-05-11T02:29:36.416Z,11.76
2023-05-11T02:30:36.525Z,11.76
2023-05-11T02:31:36.673Z,11.76
2023-05-11T02:32:36.701Z,11.76
2023-05-11T02:33:36.747Z,11.76
2023-05-11T02:34:36.844Z,11.76
2023-05-11T02:35:36.929Z,11.76
2023-05-11T02:36:37.031Z,11.76
2023-05-11T02:37:37.084Z,11.75
2023-05-11T02:38:37.179Z,11.75
2023-05-11T02:39:37.278Z,11.76
2023-05-11T02:40:37.363Z,11.76
2023-05-11T02:41:37.457Z,11.76
2023-05-11T02:42:37.562Z,11.76
2023-05-11T02:43:37.645Z,11.75
2023-05-11T02:44:37.704Z,11.75
2023-05-11T02:45:37.814Z,11.75
2023-05-11T02:46:37.928Z,11.75
2023-05-11T02:47:38.011Z,11.75
2023-05-11T02:48:38.058Z,11.75
2023-05-11T02:49:38.154Z,11.76
2023-05-11T02:50:38.235Z,11.77
2023-05-11T02:51:38.318Z,11.77
2023-05-11T02:52:38.409Z,11.78
2023-05-11T02:53:38.526Z,11.78
2023-05-11T02:54:38.599Z,11.79
2023-05-11T02:55:38.675Z,11.79
2023-05-11T02:56:38.762Z,11.80
2023-05-11T02:57:39.218Z,11.81
2023-05-11T02:58:38.908Z,11.82
2023-05-11T02:59:39.022Z,11.83
2023-05-11T03:00:39.119Z,11.85
2023-05-11T03:01:39.194Z,11.86
2023-05-11T03:02:39.284Z,11.87
2023-05-11T03:03:39.443Z,11.87
2023-05-11T03:04:39.399Z,11.87
2023-05-11T03:05:39.485Z,11.87
2023-05-11T03:06:39.588Z,11.87
2023-05-11T03:07:39.645Z,11.88
2023-05-11T03:08:39.731Z,11.88
2023-05-11T03:09:39.808Z,11.88
2023-05-11T03:10:39.895Z,11.89
2023-05-11T03:11:39.971Z,11.89
2023-05-11T03:12:40.052Z,11.90
2023-05-11T03:13:40.154Z,11.90
2023-05-11T03:14:40.234Z,11.90
2023-05-11T03:15:40.337Z,11.90
2023-05-11T03:16:40.440Z,11.91
2023-05-11T03:17:40.566Z,11.92
2023-05-11T03:18:40.621Z,11.93
2023-05-11T03:19:40.668Z,11.94
2023-05-11T03:20:40.764Z,11.95
2023-05-11T03:21:40.863Z,11.95
2023-05-11T03:22:40.919Z,11.96
2023-05-11T03:23:41.006Z,11.96
2023-05-11T03:24:41.098Z,11.96
2023-05-11T03:25:41.170Z,11.96
2023-05-11T03:26:41.276Z,11.96
2023-05-11T03:27:41.362Z,11.96
2023-05-11T03:28:41.461Z,11.96
2023-05-11T03:29:41.515Z,11.96
2023-05-11T03:30:41.630Z,11.96
2023-05-11T03:31:41.694Z,11.95
2023-05-11T03:32:41.807Z,11.95
2023-05-11T03:33:41.877Z,11.95
2023-05-11T03:34:41.969Z,11.95
2023-05-11T03:35:42.098Z,11.96
2023-05-11T03:36:42.185Z,11.98
2023-05-11T03:37:42.262Z,12.01
2023-05-11T03:38:42.313Z,12.03
2023-05-11T03:39:42.404Z,12.06
2023-05-11T03:40:42.488Z,12.08
2023-05-11T03:41:42.577Z,12.09
2023-05-11T03:42:42.669Z,12.11
2023-05-11T03:43:42.754Z,12.12
2023-05-11T03:44:42.860Z,12.14
2023-05-11T03:45:43.100Z,12.16
2023-05-11T03:46:43.050Z,12.19
2023-05-11T03:47:43.196Z,12.21
2023-05-11T03:48:43.212Z,12.23
2023-05-11T03:49:43.298Z,12.26
2023-05-11T03:50:43.344Z,12.27
2023-05-11T03:51:43.438Z,12.29
2023-05-11T03:52:43.516Z,12.30
2023-05-11T03:53:43.569Z,12.29
2023-05-11T03:54:43.680Z,12.27
2023-05-11T03:55:43.757Z,12.24
2023-05-11T03:56:43.795Z,12.21
2023-05-11T03:57:43.892Z,12.19
2023-05-11T03:58:43.980Z,12.18
2023-05-11T03:59:44.064Z,12.17
2023-05-11T04:00:44.157Z,12.16
2023-05-11T04:01:44.239Z,12.15
2023-05-11T04:02:44.367Z,12.15
2023-05-11T04:03:44.602Z,12.15
2023-05-11T04:04:44.609Z,12.15
2023-05-11T04:05:44.617Z,12.14
2023-05-11T04:06:44.663Z,12.15
2023-05-11T04:07:44.757Z,12.15
2023-05-11T04:08:44.854Z,12.16
2023-05-11T04:09:44.952Z,12.18
2023-05-11T04:10:45.067Z,12.20
2023-05-11T04:11:45.128Z,12.22
2023-05-11T04:12:45.190Z,12.23
2023-05-11T04:13:45.317Z,12.24
2023-05-11T04:14:45.378Z,12.25
2023-05-11T04:15:45.500Z,12.25
2023-05-11T04:16:45.536Z,12.26
2023-05-11T04:17:45.695Z,12.26
2023-05-11T04:18:45.751Z,12.25
2023-05-11T04:19:45.788Z,12.24
2023-05-11T04:20:45.890Z,12.23
2023-05-11T04:21:45.977Z,12.24
2023-05-11T04:22:46.062Z,12.24
2023-05-11T04:23:46.143Z,12.25
2023-05-11T04:24:46.208Z,12.26
2023-05-11T04:25:46.272Z,12.27
2023-05-11T04:26:46.379Z,12.27
2023-05-11T04:27:46.458Z,12.27
2023-05-11T04:28:46.542Z,12.26
2023-05-11T04:29:46.634Z,12.24
2023-05-11T04:30:46.714Z,12.24
2023-05-11T04:31:46.854Z,12.25
2023-05-11T04:32:46.931Z,12.26
2023-05-11T04:33:46.934Z,12.26
2023-05-11T04:34:47.021Z,12.28
2023-05-11T04:35:47.081Z,12.30
2023-05-11T04:36:47.132Z,12.33
2023-05-11T04:37:47.226Z,12.36
2023-05-11T04:38:47.313Z,12.38
2023-05-11T04:39:47.409Z,12.40
2023-05-11T04:40:47.489Z,12.41
2023-05-11T04:41:47.588Z,12.42
2023-05-11T04:42:47.708Z,12.43
2023-05-11T04:43:47.741Z,12.45
2023-05-11T04:44:47.840Z,12.47
2023-05-11T04:45:47.899Z,12.49
2023-05-11T04:46:48.046Z,12.50
2023-05-11T04:47:48.122Z,12.52
2023-05-11T04:48:48.153Z,12.55
2023-05-11T04:49:48.213Z,12.59
2023-05-11T04:50:48.362Z,12.65
2023-05-11T04:51:48.401Z,12.69
2023-05-11T04:52:48.475Z,12.72
2023-05-11T04:53:48.541Z,12.73
2023-05-11T04:54:48.609Z,12.73
2023-05-11T04:55:48.656Z,12.74
2023-05-11T04:56:48.705Z,12.75
2023-05-11T04:57:48.807Z,12.78
2023-05-11T04:58:48.908Z,12.79
2023-05-11T13:33:54.667Z,22.17
2023-05-11T13:34:56.466Z,21.81
2023-05-11T13:35:55.828Z,21.65
2023-05-11T13:36:55.939Z,21.59
2023-05-11T13:37:56.001Z,21.55
2023-05-11T13:38:56.106Z,21.50
2023-05-11T13:39:56.199Z,21.50
2023-05-11T13:40:56.254Z,21.53
2023-05-11T13:41:56.346Z,21.55
2023-05-11T13:42:56.420Z,21.49
2023-05-11T13:43:56.555Z,21.33
2023-05-11T13:44:56.569Z,21.17
2023-05-11T13:45:56.664Z,21.02
2023-05-11T13:46:56.780Z,20.88
2023-05-11T13:47:56.863Z,20.79
2023-05-11T13:48:56.887Z,20.74
2023-05-11T13:49:56.974Z,20.68
2023-05-11T13:50:57.072Z,20.63
2023-05-11T13:51:57.156Z,20.60
2023-05-11T13:52:57.267Z,20.59
2023-05-11T13:53:57.324Z,20.57
2023-05-11T13:54:57.396Z,20.50
2023-05-11T13:55:58.131Z,20.43
2023-05-11T13:56:57.577Z,20.39
2023-05-11T13:57:57.702Z,20.36
2023-05-11T13:58:59.887Z,20.32
2023-05-11T13:59:57.849Z,20.28
2023-05-11T14:01:58.193Z,20.21
2023-05-11T14:02:58.280Z,20.17
2023-05-11T14:03:58.181Z,20.13
2023-05-11T14:04:58.250Z,20.09
2023-05-11T14:05:58.310Z,20.07
2023-05-11T14:06:58.365Z,20.08
2023-05-11T14:07:58.482Z,20.11
2023-05-11T14:08:58.538Z,20.14
2023-05-11T14:09:58.676Z,20.16
2023-05-11T14:10:58.708Z,20.16
2023-05-11T14:11:58.804Z,20.17
2023-05-11T14:12:58.898Z,20.17
2023-05-11T14:13:58.996Z,20.13
2023-05-11T14:14:59.074Z,20.08
2023-05-11T14:15:59.758Z,20.05
2023-05-11T14:16:59.256Z,20.02
2023-05-11T14:17:59.396Z,19.99
2023-05-11T14:18:59.516Z,19.95
2023-05-11T14:19:59.491Z,19.88
2023-05-11T14:20:59.588Z,19.78
2023-05-11T14:21:59.678Z,19.72
2023-05-11T14:22:59.767Z,19.69
2023-05-11T14:24:10.702Z,19.71
2023-05-11T14:24:59.968Z,19.78
2023-05-11T14:26:00.118Z,19.84
2023-05-11T14:27:00.158Z,19.91
2023-05-11T14:28:00.209Z,19.93
2023-05-11T14:29:00.278Z,19.93
2023-05-11T14:30:00.326Z,19.94
2023-05-11T14:31:00.455Z,19.97
2023-05-11T14:32:00.496Z,19.99
2023-05-11T14:33:00.601Z,19.97
2023-05-11T14:34:00.672Z,19.96
2023-05-11T14:35:00.737Z,19.93
2023-05-11T14:36:00.804Z,19.92
2023-05-11T14:37:00.926Z,19.95
2023-05-11T14:38:00.989Z,20.00
2023-05-11T14:39:01.094Z,20.05
2023-05-11T14:40:01.177Z,20.09
2023-05-11T14:41:01.219Z,20.10
2023-05-11T14:42:01.327Z,20.05
2023-05-11T14:43:01.397Z,19.97
2023-05-11T14:44:01.481Z,19.91
2023-05-11T14:45:01.525Z,19.92
2023-05-11T14:46:01.649Z,19.96
2023-05-11T14:47:01.721Z,20.02
2023-05-11T14:48:01.841Z,20.06
2023-05-11T14:49:01.878Z,20.12
2023-05-11T14:50:02.665Z,20.21
2023-05-11T14:51:02.046Z,20.24
2023-05-11T14:52:02.880Z,20.27
2023-05-11T14:53:02.194Z,20.28
2023-05-11T14:54:02.235Z,20.28
2023-05-11T14:55:02.337Z,20.29
2023-05-11T14:56:02.435Z,20.30
2023-05-11T14:57:02.546Z,20.36
2023-05-11T14:58:02.651Z,20.47
2023-05-11T14:59:02.714Z,20.62
2023-05-11T15:00:02.811Z,20.78
2023-05-11T15:01:02.883Z,20.93
2023-05-11T15:02:02.949Z,21.06
2023-05-11T15:03:03.154Z,21.08
2023-05-11T15:04:03.136Z,21.03
2023-05-11T15:05:03.218Z,21.01
2023-05-11T15:06:03.258Z,21.00
2023-05-11T15:07:03.367Z,20.96
2023-05-11T15:08:03.420Z,20.91
2023-05-11T15:09:03.527Z,20.84
2023-05-11T15:10:03.700Z,20.78
2023-05-11T15:11:03.713Z,20.70
2023-05-11T15:12:03.797Z,20.63
2023-05-11T15:13:03.896Z,20.60
2023-05-11T15:14:04.044Z,20.62
2023-05-11T15:15:04.052Z,20.73
2023-05-11T15:16:04.217Z,20.81
2023-05-11T15:17:04.229Z,20.87
2023-05-11T15:18:11.630Z,20.92
2023-05-11T15:19:04.455Z,20.91
2023-05-11T15:20:04.496Z,20.89
2023-05-11T15:21:04.604Z,20.91
2023-05-11T15:22:04.660Z,21.16
2023-05-11T15:23:04.765Z,21.57
2023-05-11T15:24:04.831Z,21.80
2023-05-11T15:25:05.019Z,21.81
2023-05-11T15:26:04.984Z,21.80
2023-05-11T15:27:05.019Z,21.77
2023-05-11T15:28:05.120Z,21.67
2023-05-11T15:29:05.197Z,21.53
2023-05-11T15:30:05.339Z,21.46
2023-05-11T15:31:05.378Z,21.61
2023-05-11T15:32:05.578Z,21.96
2023-05-11T15:33:20.308Z,22.36
2023-05-11T15:34:05.724Z,22.78
2023-05-11T15:35:05.738Z,23.21
2023-05-11T15:36:05.816Z,23.52
2023-05-11T15:37:06.211Z,23.56
2023-05-11T15:38:06.030Z,23.24
2023-05-11T15:39:06.087Z,22.68
2023-05-11T15:40:06.162Z,22.29
2023-05-11T15:41:06.236Z,22.32
2023-05-11T15:42:06.288Z,22.65
2023-05-11T15:43:06.374Z,22.97
2023-05-11T15:44:06.494Z,23.10
2023-05-11T15:45:06.564Z,23.12
2023-05-11T15:46:06.656Z,23.15
2023-05-11T15:47:06.674Z,23.14
2023-05-11T15:48:06.800Z,23.13
2023-05-11T15:49:06.872Z,23.09
2023-05-11T15:50:06.949Z,22.93
2023-05-11T15:51:07.036Z,22.70
2023-05-11T15:52:07.090Z,22.50
2023-05-11T15:53:07.156Z,22.36
2023-05-11T15:54:07.271Z,22.19
2023-05-11T15:55:07.334Z,21.99
2023-05-11T15:56:07.444Z,21.85
2023-05-11T15:57:17.220Z,21.76
2023-05-11T15:58:07.619Z,21.73
2023-05-11T15:59:07.706Z,21.70
2023-05-11T16:00:07.832Z,21.63
2023-05-11T16:01:07.925Z,21.56
2023-05-11T16:02:08.015Z,21.54
2023-05-11T16:03:08.165Z,21.57
2023-05-11T16:04:08.146Z,21.59
2023-05-11T16:05:08.235Z,21.63
2023-05-11T16:06:08.399Z,21.81
2023-05-11T16:07:08.522Z,22.03
2023-05-11T16:08:08.474Z,22.18
2023-05-11T16:09:08.592Z,22.24
2023-05-11T16:10:08.916Z,22.21
2023-05-11T16:11:08.828Z,22.21
2023-05-11T16:12:11.801Z,22.34
2023-05-11T16:13:08.852Z,22.49
2023-05-11T16:14:08.926Z,22.52
2023-05-11T16:15:09.051Z,22.47
2023-05-11T16:16:09.173Z,22.47
2023-05-11T16:17:09.194Z,22.54
2023-05-11T16:18:09.280Z,22.64
2023-05-11T16:19:09.343Z,22.69
2023-05-11T16:20:09.414Z,22.81
2023-05-11T16:21:10.292Z,23.06
2023-05-11T16:22:09.606Z,23.32
2023-05-11T16:23:09.676Z,23.56
2023-05-11T16:24:09.766Z,23.72
2023-05-11T16:25:09.876Z,23.79
2023-05-11T16:26:09.928Z,23.74
2023-05-11T16:27:10.048Z,23.52
2023-05-11T16:28:10.110Z,23.35
2023-05-11T16:29:10.166Z,23.32
2023-05-11T16:30:22.407Z,23.33
2023-05-11T16:31:10.358Z,23.26
2023-05-11T16:32:10.446Z,23.11
2023-05-11T16:33:10.619Z,23.02
2023-05-11T16:34:10.603Z,23.11
2023-05-11T16:35:10.686Z,23.24
2023-05-11T16:36:10.784Z,23.29
2023-05-11T16:37:10.881Z,23.31
2023-05-11T16:38:10.937Z,23.26
2023-05-11T16:39:11.048Z,23.13
2023-05-11T16:40:11.119Z,22.99
2023-05-11T16:41:11.174Z,22.91
2023-05-11T16:42:11.272Z,22.89
2023-05-11T16:43:11.365Z,22.81
2023-05-11T16:44:11.476Z,22.61
2023-05-11T16:45:11.544Z,22.42
2023-05-11T16:46:11.687Z,22.30
2023-05-11T16:47:11.742Z,22.24
2023-05-11T16:48:11.800Z,22.19
2023-05-11T16:49:11.871Z,22.15
2023-05-11T16:50:11.918Z,22.15
2023-05-11T16:51:12.010Z,22.23
2023-05-11T16:52:12.122Z,22.44
2023-05-11T16:53:12.204Z,22.66
2023-05-11T16:54:12.246Z,22.83
2023-05-11T16:55:12.381Z,22.89
2023-05-11T16:56:12.437Z,22.89
2023-05-11T16:57:12.514Z,22.82
2023-05-11T16:58:12.622Z,22.73
2023-05-11T16:59:12.682Z,22.76
2023-05-11T17:00:12.755Z,22.86
2023-05-11T17:01:12.864Z,22.96
2023-05-11T17:02:12.929Z,23.11
2023-05-11T17:03:13.124Z,23.16
2023-05-11T17:04:13.144Z,23.18
2023-05-11T17:05:13.125Z,23.21
2023-05-11T17:06:13.215Z,23.15
2023-05-11T17:07:13.313Z,23.13
2023-05-11T17:08:13.400Z,23.27
2023-05-11T17:09:13.556Z,23.37
2023-05-11T17:10:13.613Z,23.29
2023-05-11T17:11:13.663Z,23.10
2023-05-11T17:12:13.755Z,22.91
2023-05-11T17:13:13.815Z,22.86
2023-05-11T17:14:13.900Z,22.80
2023-05-11T17:15:14.105Z,22.56
2023-05-11T17:16:14.174Z,22.21
2023-05-11T17:17:14.157Z,21.82
2023-05-11T17:18:14.307Z,21.43
2023-05-11T17:19:14.373Z,21.06
2023-05-11T17:20:14.419Z,20.75
2023-05-11T17:21:14.516Z,20.49
2023-05-11T17:22:14.634Z,20.26
2023-05-11T17:23:14.685Z,20.07
2023-05-11T17:24:14.818Z,19.95
2023-05-11T17:25:14.913Z,19.88
2023-05-11T17:26:14.972Z,19.81
2023-05-11T17:27:15.069Z,19.75
2023-05-11T17:28:15.168Z,19.70
2023-05-11T17:29:15.225Z,19.64
2023-05-11T17:30:15.313Z,19.58
2023-05-11T17:31:15.455Z,19.52
2023-05-11T17:32:15.623Z,19.47
2023-05-11T17:33:15.705Z,19.42
2023-05-11T17:34:15.934Z,19.39
2023-05-11T17:35:15.771Z,19.35
2023-05-11T17:36:15.802Z,19.32
2023-05-11T17:37:30.600Z,19.31
2023-05-11T17:38:15.946Z,19.30
2023-05-11T17:39:16.034Z,19.28
2023-05-11T17:40:16.144Z,19.26
2023-05-11T17:41:16.205Z,19.23
2023-05-11T17:42:16.294Z,19.20
2023-05-11T17:43:16.403Z,19.17
2023-05-11T17:44:16.483Z,19.15
2023-05-11T17:45:16.704Z,19.12
2023-05-11T17:46:16.673Z,19.07
2023-05-11T17:47:16.735Z,19.03
2023-05-11T17:48:16.826Z,19.01
2023-05-11T17:49:17.007Z,19.00
2023-05-11T17:50:16.987Z,18.98
2023-05-11T17:51:17.061Z,18.96
2023-05-11T17:52:17.138Z,18.94
2023-05-11T17:53:17.209Z,18.90
2023-05-11T17:54:17.327Z,18.86
2023-05-11T17:55:17.792Z,18.83
2023-05-11T17:56:17.445Z,18.79
2023-05-11T17:57:17.570Z,18.78
2023-05-11T17:58:17.618Z,18.78
2023-05-11T17:59:19.744Z,18.78
2023-05-11T18:00:17.954Z,18.75
2023-05-11T18:01:17.982Z,18.72
2023-05-11T18:02:18.072Z,18.69
2023-05-11T18:03:18.230Z,18.66
2023-05-11T18:04:18.171Z,18.64
2023-05-11T18:05:18.231Z,18.62
2023-05-11T18:06:18.341Z,18.60
2023-05-11T18:07:18.415Z,18.56
2023-05-11T18:08:18.472Z,18.52
2023-05-11T18:09:18.559Z,18.49
2023-05-11T18:10:18.856Z,18.47
2023-05-11T18:11:18.716Z,18.46
2023-05-11T18:12:18.821Z,18.46
2023-05-11T18:13:18.880Z,18.46
2023-05-11T18:14:18.991Z,18.44
2023-05-11T18:15:19.094Z,18.43
2023-05-11T18:16:19.204Z,18.40
2023-05-11T18:17:19.255Z,18.37
2023-05-11T18:18:19.448Z,18.34
2023-05-11T18:19:19.429Z,18.31
2023-05-11T18:20:19.685Z,18.28
2023-05-11T18:21:19.608Z,18.23
2023-05-11T18:22:19.729Z,18.19
2023-05-11T18:23:19.806Z,18.19
2023-05-11T18:24:19.888Z,18.20
2023-05-11T18:25:19.939Z,18.19
2023-05-11T18:26:20.053Z,18.16
2023-05-11T18:27:20.161Z,18.13
2023-05-11T18:28:20.215Z,18.11
2023-05-11T18:29:20.325Z,18.10
2023-05-11T18:30:20.611Z,18.07
2023-05-11T18:31:20.507Z,18.03
2023-05-11T18:32:20.574Z,17.99
2023-05-11T18:33:20.747Z,17.96
2023-05-11T18:34:20.750Z,17.92
2023-05-11T18:35:20.820Z,17.89
2023-05-11T18:36:20.933Z,17.86
2023-05-11T18:37:20.974Z,17.83
2023-05-11T18:38:21.070Z,17.80
2023-05-11T18:39:21.133Z,17.75
2023-05-11T18:40:21.975Z,17.70
2023-05-11T18:41:21.273Z,17.65
2023-05-11T18:42:21.367Z,17.62
2023-05-11T18:43:21.465Z,17.60
2023-05-11T18:44:21.551Z,17.59
2023-05-11T18:45:21.663Z,17.56
2023-05-11T18:46:21.771Z,17.53
2023-05-11T18:47:21.805Z,17.50
2023-05-11T18:48:21.908Z,17.46
2023-05-11T18:49:22.009Z,17.43
2023-05-11T18:50:22.189Z,17.40
2023-05-11T18:51:22.155Z,17.37
2023-05-11T18:52:22.213Z,17.33
2023-05-11T18:53:22.306Z,17.29
2023-05-11T18:54:22.440Z,17.26
2023-05-11T18:55:22.476Z,17.25
2023-05-11T18:56:22.573Z,17.24
2023-05-11T18:57:22.665Z,17.21
2023-05-11T18:58:22.735Z,17.18
2023-05-11T18:59:22.822Z,17.13
2023-05-11T19:00:23.010Z,17.09
2023-05-11T19:01:30.306Z,17.05
2023-05-11T19:02:23.145Z,17.02
2023-05-11T19:03:23.288Z,16.99
2023-05-11T19:04:23.213Z,16.97
2023-05-11T19:05:23.318Z,16.94
2023-05-11T19:06:23.368Z,16.91
2023-05-11T19:07:23.472Z,16.89
2023-05-11T19:08:23.550Z,16.88
2023-05-11T19:09:23.605Z,16.89
2023-05-11T19:10:23.698Z,16.90
2023-05-11T19:11:23.886Z,16.91
2023-05-11T19:12:23.875Z,16.92
2023-05-11T19:13:23.959Z,16.91
2023-05-11T19:14:24.302Z,16.90
2023-05-11T19:15:24.132Z,16.87
2023-05-11T19:16:24.266Z,16.85
2023-05-11T19:17:39.389Z,16.84
2023-05-11T19:18:24.387Z,16.83
2023-05-11T19:19:24.462Z,16.82
2023-05-11T19:20:24.593Z,16.82
2023-05-11T19:21:24.624Z,16.81
2023-05-11T19:22:24.712Z,16.79
2023-05-11T19:23:24.820Z,16.78
2023-05-11T19:24:24.875Z,16.75
2023-05-11T19:25:24.965Z,16.74
2023-05-11T19:26:25.103Z,16.74
2023-05-11T19:27:25.170Z,16.73
2023-05-11T19:28:25.238Z,16.73
2023-05-11T19:29:25.347Z,16.73
2023-05-11T19:30:25.396Z,16.73
2023-05-11T19:31:25.541Z,16.74
2023-05-11T19:32:25.658Z,16.74
2023-05-11T19:33:25.625Z,16.73
2023-05-11T19:34:25.711Z,16.72
2023-05-11T19:35:25.839Z,16.70
2023-05-11T19:36:25.896Z,16.68
2023-05-11T19:37:25.982Z,16.65
2023-05-11T19:38:26.101Z,16.63
2023-05-11T19:39:26.159Z,16.59
2023-05-11T19:40:45.366Z,16.56
2023-05-11T19:41:28.175Z,16.55
2023-05-11T19:42:38.321Z,16.55
2023-05-11T19:43:26.529Z,16.55
2023-05-11T19:44:26.634Z,16.55
2023-05-11T19:45:26.678Z,16.55
2023-05-11T19:46:26.842Z,16.56
2023-05-11T19:47:26.899Z,16.56
2023-05-11T19:48:26.959Z,16.54
2023-05-11T19:49:27.052Z,16.52
2023-05-11T19:50:27.224Z,16.50
2023-05-11T19:51:27.184Z,16.47
2023-05-11T19:52:27.297Z,16.43
2023-05-11T19:53:30.366Z,16.39
2023-05-11T19:54:27.433Z,16.37
2023-05-11T19:55:27.491Z,16.35
2023-05-11T19:56:27.586Z,16.34
2023-05-11T19:57:27.640Z,16.33
2023-05-11T19:58:27.729Z,16.32
2023-05-11T19:59:28.692Z,16.32
2023-05-11T20:00:27.906Z,16.33
2023-05-11T20:01:28.028Z,16.34
2023-05-11T20:02:28.171Z,16.35
2023-05-11T20:03:28.948Z,16.37
2023-05-11T20:04:28.261Z,16.39
2023-05-11T20:05:28.391Z,16.39
2023-05-11T20:06:28.368Z,16.38
2023-05-11T20:07:28.457Z,16.37
2023-05-11T20:08:28.549Z,16.36
2023-05-11T20:09:28.681Z,16.37
2023-05-11T20:10:28.736Z,16.37
2023-05-11T20:11:28.807Z,16.36
2023-05-11T20:12:28.893Z,16.35
2023-05-11T20:13:29.000Z,16.35
2023-05-11T20:14:29.093Z,16.35
2023-05-11T20:15:29.226Z,16.35
2023-05-11T20:16:29.297Z,16.34
2023-05-11T20:17:29.363Z,16.32
2023-05-11T20:18:29.463Z,16.30
2023-05-11T20:19:29.526Z,16.28
2023-05-11T20:20:29.584Z,16.26
2023-05-11T20:21:29.679Z,16.24
2023-05-11T20:22:30.293Z,16.23
2023-05-11T20:23:29.899Z,16.22
2023-05-11T20:24:29.953Z,16.20
2023-05-11T20:25:30.009Z,16.18
2023-05-11T20:26:30.118Z,16.18
2023-05-11T20:27:30.185Z,16.19
2023-05-11T20:28:30.271Z,16.20
2023-05-11T20:29:30.354Z,16.21
2023-05-11T20:30:30.484Z,16.20
2023-05-11T20:31:30.626Z,16.18
2023-05-11T20:32:30.610Z,16.15
2023-05-11T20:34:30.799Z,16.10
2023-05-11T20:35:30.867Z,16.08
2023-05-11T20:36:30.959Z,16.07
2023-05-11T20:37:31.096Z,16.06
2023-05-11T20:38:31.124Z,16.06
2023-05-11T20:39:31.214Z,16.04
2023-05-11T20:40:31.317Z,16.03
2023-05-11T20:41:31.380Z,16.03
2023-05-11T20:42:31.509Z,16.02
2023-05-11T20:43:31.576Z,16.00
2023-05-11T20:44:31.648Z,15.98
2023-05-11T20:45:31.797Z,15.96
2023-05-11T20:46:31.806Z,15.94
2023-05-11T20:47:31.922Z,15.91
2023-05-11T20:48:39.951Z,15.89
2023-05-11T20:49:38.792Z,15.87
2023-05-11T20:50:32.162Z,15.86
2023-05-11T20:51:32.202Z,15.84
2023-05-11T20:52:32.310Z,15.83
2023-05-11T20:53:32.378Z,15.81
2023-05-11T20:54:32.476Z,15.80
2023-05-11T20:55:32.570Z,15.79
2023-05-11T20:56:32.705Z,15.78
2023-05-11T20:57:32.729Z,15.78
2023-05-11T20:58:32.854Z,15.76
2023-05-11T21:00:33.010Z,15.72
2023-05-11T21:01:33.417Z,15.69
2023-05-11T21:02:33.249Z,15.67
2023-05-11T21:03:33.334Z,15.65
2023-05-11T21:04:33.307Z,15.62
2023-05-11T21:05:33.356Z,15.60
2023-05-11T21:06:33.445Z,15.59
2023-05-11T21:07:33.545Z,15.57
2023-05-11T21:08:33.659Z,15.54
2023-05-11T21:09:33.734Z,15.52
2023-05-11T21:10:33.775Z,15.50
2023-05-11T21:11:33.876Z,15.46
2023-05-11T21:12:33.960Z,15.42
2023-05-11T21:13:34.069Z,15.38
2023-05-11T21:14:34.130Z,15.35
2023-05-11T21:15:34.268Z,15.33
2023-05-11T21:16:34.291Z,15.31
2023-05-11T21:17:34.679Z,15.30
2023-05-11T21:18:34.534Z,15.30
2023-05-11T21:19:34.508Z,15.31
2023-05-11T21:20:34.604Z,15.32
2023-05-11T21:21:34.699Z,15.33
2023-05-11T21:22:34.864Z,15.35
2023-05-11T21:23:34.898Z,15.37
2023-05-11T21:24:34.968Z,15.39
2023-05-11T21:25:35.183Z,15.41
2023-05-11T21:26:35.166Z,15.41
2023-05-11T21:27:35.251Z,15.40
2023-05-11T21:28:35.316Z,15.39
2023-05-11T21:29:35.369Z,15.39
2023-05-11T21:30:35.529Z,15.38